sensor_id;sensor_type;location;lat;lon;timestamp;P1;durP1;ratioP1;P2;durP2;ratioP2
9094;SDS011;4583;49.796;9.902;2022-11-14T00:01:06;25.20;;;16.20;;
9094;SDS011;4583;49.796;9.902;2022-11-14T00:11:09;28.00;;;16.40;;
9094;SDS011;4583;49.796;9.902;2022-11-14T00:21:11;79.93;;;18.90;;
9094;SDS011;4583;49.796;9.902;2022-11-14T00:31:12;53.43;;;18.20;;
9094;SDS011;4583;49.796;9.902;2022-11-14T00:41:14;30.93;;;16.40;;
9094;SDS011;4583;49.796;9.902;2022-11-14T00:51:15;37.57;;;16.30;;
9094;SDS011;4583;49.796;9.902;2022-11-14T01:01:17;30.10;;;15.60;;
9094;SDS011;4583;49.796;9.902;2022-11-14T01:11:20;27.30;;;15.17;;
9094;SDS011;4583;49.796;9.902;2022-11-14T01:21:22;26.57;;;15.80;;
9094;SDS011;4583;49.796;9.902;2022-11-14T01:31:24;35.27;;;15.10;;
9094;SDS011;4583;49.796;9.902;2022-11-14T01:41:26;134.30;;;17.60;;
9094;SDS011;4583;49.796;9.902;2022-11-14T01:51:31;21.90;;;13.90;;
9094;SDS011;4583;49.796;9.902;2022-11-14T02:01:40;24.77;;;14.30;;
9094;SDS011;4583;49.796;9.902;2022-11-14T02:11:48;20.17;;;13.03;;
9094;SDS011;4583;49.796;9.902;2022-11-14T02:21:51;94.27;;;16.13;;
9094;SDS011;4583;49.796;9.902;2022-11-14T02:31:52;23.03;;;13.97;;
9094;SDS011;4583;49.796;9.902;2022-11-14T02:41:54;20.47;;;13.73;;
9094;SDS011;4583;49.796;9.902;2022-11-14T02:51:56;23.57;;;14.03;;
9094;SDS011;4583;49.796;9.902;2022-11-14T03:01:58;41.50;;;15.63;;
9094;SDS011;4583;49.796;9.902;2022-11-14T03:12:00;100.27;;;16.40;;
9094;SDS011;4583;49.796;9.902;2022-11-14T03:22:02;29.80;;;14.03;;
9094;SDS011;4583;49.796;9.902;2022-11-14T03:32:04;120.30;;;16.00;;
9094;SDS011;4583;49.796;9.902;2022-11-14T03:42:05;59.43;;;14.40;;
9094;SDS011;4583;49.796;9.902;2022-11-14T03:52:07;29.77;;;13.43;;
9094;SDS011;4583;49.796;9.902;2022-11-14T04:02:09;20.20;;;12.67;;
9094;SDS011;4583;49.796;9.902;2022-11-14T04:12:10;23.13;;;13.57;;
9094;SDS011;4583;49.796;9.902;2022-11-14T04:22:16;19.60;;;12.40;;
9094;SDS011;4583;49.796;9.902;2022-11-14T04:32:17;19.63;;;11.83;;
9094;SDS011;4583;49.796;9.902;2022-11-14T04:42:19;19.47;;;11.63;;
9094;SDS011;4583;49.796;9.902;2022-11-14T04:52:21;19.03;;;11.73;;
9094;SDS011;4583;49.796;9.902;2022-11-14T05:02:22;20.00;;;12.73;;
9094;SDS011;4583;49.796;9.902;2022-11-14T05:12:24;19.57;;;12.77;;
9094;SDS011;4583;49.796;9.902;2022-11-14T05:22:25;19.43;;;12.30;;
9094;SDS011;4583;49.796;9.902;2022-11-14T05:38:01;25.40;;;14.73;;
9094;SDS011;4583;49.796;9.902;2022-11-14T05:48:03;26.27;;;14.77;;
9094;SDS011;4583;49.796;9.902;2022-11-14T05:58:05;24.83;;;16.03;;
9094;SDS011;4583;49.796;9.902;2022-11-14T06:08:07;24.77;;;15.37;;
9094;SDS011;4583;49.796;9.902;2022-11-14T06:18:09;23.93;;;15.47;;
9094;SDS011;4583;49.796;9.902;2022-11-14T06:28:11;27.20;;;16.37;;
9094;SDS011;4583;49.796;9.902;2022-11-14T06:38:12;25.13;;;16.77;;
9094;SDS011;4583;49.796;9.902;2022-11-14T06:48:14;22.63;;;15.57;;
9094;SDS011;4583;49.796;9.902;2022-11-14T06:58:15;29.67;;;17.00;;
9094;SDS011;4583;49.796;9.902;2022-11-14T07:08:17;27.03;;;15.23;;
9094;SDS011;4583;49.796;9.902;2022-11-14T07:18:21;27.97;;;16.13;;
9094;SDS011;4583;49.796;9.902;2022-11-14T07:28:23;30.10;;;16.73;;
9094;SDS011;4583;49.796;9.902;2022-11-14T07:38:24;26.30;;;16.40;;
9094;SDS011;4583;49.796;9.902;2022-11-14T07:48:27;32.03;;;17.43;;
9094;SDS011;4583;49.796;9.902;2022-11-14T07:58:30;26.70;;;16.70;;
9094;SDS011;4583;49.796;9.902;2022-11-14T08:08:32;23.50;;;14.90;;
9094;SDS011;4583;49.796;9.902;2022-11-14T08:18:34;23.13;;;14.87;;
9094;SDS011;4583;49.796;9.902;2022-11-14T08:28:36;22.20;;;14.17;;
9094;SDS011;4583;49.796;9.902;2022-11-14T08:38:38;22.50;;;14.43;;
9094;SDS011;4583;49.796;9.902;2022-11-14T08:48:39;25.90;;;16.43;;
9094;SDS011;4583;49.796;9.902;2022-11-14T08:58:41;23.70;;;15.63;;
9094;SDS011;4583;49.796;9.902;2022-11-14T09:08:43;20.23;;;13.53;;
9094;SDS011;4583;49.796;9.902;2022-11-14T09:18:44;28.10;;;14.80;;
9094;SDS011;4583;49.796;9.902;2022-11-14T09:28:46;23.33;;;15.63;;
9094;SDS011;4583;49.796;9.902;2022-11-14T09:38:49;24.07;;;15.87;;
9094;SDS011;4583;49.796;9.902;2022-11-14T09:48:51;18.80;;;13.50;;
9094;SDS011;4583;49.796;9.902;2022-11-14T09:58:54;18.43;;;12.60;;
9094;SDS011;4583;49.796;9.902;2022-11-14T10:09:00;18.27;;;12.00;;
9094;SDS011;4583;49.796;9.902;2022-11-14T10:29:47;22.57;;;16.73;;
9094;SDS011;4583;49.796;9.902;2022-11-14T10:39:52;22.77;;;16.63;;
9094;SDS011;4583;49.796;9.902;2022-11-14T10:49:56;13.53;;;10.10;;
9094;SDS011;4583;49.796;9.902;2022-11-14T11:00:09;13.33;;;9.97;;
9094;SDS011;4583;49.796;9.902;2022-11-14T11:10:20;11.50;;;8.90;;
9094;SDS011;4583;49.796;9.902;2022-11-14T11:20:42;11.63;;;9.17;;
9094;SDS011;4583;49.796;9.902;2022-11-14T11:51:40;12.93;;;9.60;;
9094;SDS011;4583;49.796;9.902;2022-11-14T12:01:45;16.40;;;10.57;;
9094;SDS011;4583;49.796;9.902;2022-11-14T12:11:49;15.20;;;10.27;;
9094;SDS011;4583;49.796;9.902;2022-11-14T12:32:43;13.97;;;9.87;;
9094;SDS011;4583;49.796;9.902;2022-11-14T12:42:48;13.57;;;9.73;;
9094;SDS011;4583;49.796;9.902;2022-11-14T12:52:50;15.43;;;9.90;;
9094;SDS011;4583;49.796;9.902;2022-11-14T13:13:21;13.37;;;9.37;;
9094;SDS011;4583;49.796;9.902;2022-11-14T13:33:50;14.63;;;9.27;;
9094;SDS011;4583;49.796;9.902;2022-11-14T13:44:00;12.50;;;8.70;;
9094;SDS011;4583;49.796;9.902;2022-11-14T13:54:14;11.53;;;8.97;;
9094;SDS011;4583;49.796;9.902;2022-11-14T14:35:19;12.37;;;9.33;;
9094;SDS011;4583;49.796;9.902;2022-11-14T14:45:22;12.80;;;8.53;;
9094;SDS011;4583;49.796;9.902;2022-11-14T14:55:27;14.43;;;9.30;;
9094;SDS011;4583;49.796;9.902;2022-11-14T15:05:32;17.90;;;10.40;;
9094;SDS011;4583;49.796;9.902;2022-11-14T15:15:33;20.97;;;12.33;;
9094;SDS011;4583;49.796;9.902;2022-11-14T15:25:36;19.63;;;12.93;;
9094;SDS011;4583;49.796;9.902;2022-11-14T15:35:38;20.33;;;11.53;;
9094;SDS011;4583;49.796;9.902;2022-11-14T15:45:40;19.03;;;13.57;;
9094;SDS011;4583;49.796;9.902;2022-11-14T15:55:42;26.73;;;15.20;;
9094;SDS011;4583;49.796;9.902;2022-11-14T16:05:44;21.20;;;13.10;;
9094;SDS011;4583;49.796;9.902;2022-11-14T16:15:48;21.70;;;13.20;;
9094;SDS011;4583;49.796;9.902;2022-11-14T16:25:50;22.97;;;12.17;;
9094;SDS011;4583;49.796;9.902;2022-11-14T16:35:52;19.73;;;12.87;;
9094;SDS011;4583;49.796;9.902;2022-11-14T16:45:54;19.03;;;12.80;;
9094;SDS011;4583;49.796;9.902;2022-11-14T16:55:55;27.37;;;14.47;;
9094;SDS011;4583;49.796;9.902;2022-11-14T17:05:57;39.30;;;23.00;;
9094;SDS011;4583;49.796;9.902;2022-11-14T17:15:59;27.30;;;16.33;;
9094;SDS011;4583;49.796;9.902;2022-11-14T17:36:09;20.07;;;12.23;;
9094;SDS011;4583;49.796;9.902;2022-11-14T17:46:11;19.80;;;12.40;;
9094;SDS011;4583;49.796;9.902;2022-11-14T17:56:18;29.60;;;11.83;;
9094;SDS011;4583;49.796;9.902;2022-11-14T18:06:22;20.23;;;10.07;;
9094;SDS011;4583;49.796;9.902;2022-11-14T18:16:25;14.63;;;8.70;;
9094;SDS011;4583;49.796;9.902;2022-11-14T18:26:47;12.00;;;7.03;;
9094;SDS011;4583;49.796;9.902;2022-11-14T18:36:48;13.43;;;7.20;;
9094;SDS011;4583;49.796;9.902;2022-11-14T18:46:50;12.77;;;7.43;;
9094;SDS011;4583;49.796;9.902;2022-11-14T18:56:52;14.50;;;8.67;;
9094;SDS011;4583;49.796;9.902;2022-11-14T19:06:53;18.07;;;8.60;;
9094;SDS011;4583;49.796;9.902;2022-11-14T19:16:56;12.27;;;8.37;;
9094;SDS011;4583;49.796;9.902;2022-11-14T19:26:59;8.60;;;6.70;;
9094;SDS011;4583;49.796;9.902;2022-11-14T19:37:01;13.23;;;8.20;;
9094;SDS011;4583;49.796;9.902;2022-11-14T19:47:02;16.83;;;10.10;;
9094;SDS011;4583;49.796;9.902;2022-11-14T19:57:04;19.83;;;11.13;;
9094;SDS011;4583;49.796;9.902;2022-11-14T20:07:06;16.77;;;10.20;;
9094;SDS011;4583;49.796;9.902;2022-11-14T20:17:08;18.70;;;10.00;;
9094;SDS011;4583;49.796;9.902;2022-11-14T20:27:10;15.53;;;9.23;;
9094;SDS011;4583;49.796;9.902;2022-11-14T20:37:11;14.60;;;8.43;;
9094;SDS011;4583;49.796;9.902;2022-11-14T20:47:13;13.00;;;7.70;;
9094;SDS011;4583;49.796;9.902;2022-11-14T20:57:15;11.63;;;7.73;;
9094;SDS011;4583;49.796;9.902;2022-11-14T21:07:17;16.90;;;10.00;;
9094;SDS011;4583;49.796;9.902;2022-11-14T21:17:21;23.90;;;9.77;;
9094;SDS011;4583;49.796;9.902;2022-11-14T21:27:23;11.57;;;8.30;;
9094;SDS011;4583;49.796;9.902;2022-11-14T21:37:25;12.70;;;7.67;;
9094;SDS011;4583;49.796;9.902;2022-11-14T21:47:27;12.83;;;7.73;;
9094;SDS011;4583;49.796;9.902;2022-11-14T21:57:28;10.93;;;7.30;;
9094;SDS011;4583;49.796;9.902;2022-11-14T22:07:30;12.83;;;7.60;;
9094;SDS011;4583;49.796;9.902;2022-11-14T22:17:32;12.20;;;8.50;;
9094;SDS011;4583;49.796;9.902;2022-11-14T22:27:33;15.60;;;8.20;;
9094;SDS011;4583;49.796;9.902;2022-11-14T22:37:35;10.83;;;6.87;;
9094;SDS011;4583;49.796;9.902;2022-11-14T22:47:36;14.57;;;6.93;;
9094;SDS011;4583;49.796;9.902;2022-11-14T22:57:38;12.07;;;6.80;;
9094;SDS011;4583;49.796;9.902;2022-11-14T23:07:40;13.47;;;7.00;;
9094;SDS011;4583;49.796;9.902;2022-11-14T23:17:41;10.93;;;6.97;;
9094;SDS011;4583;49.796;9.902;2022-11-14T23:31:35;11.27;;;7.53;;
9094;SDS011;4583;49.796;9.902;2022-11-14T23:41:37;17.03;;;8.33;;
9094;SDS011;4583;49.796;9.902;2022-11-14T23:51:38;18.67;;;8.13;;
